Time;durP1;ratioP1;P1;durP2;ratioP2;P2;SDS_P1;SDS_P2;PMS_P1;PMS_P2;Temp;Humidity;BMP_temperature;BMP_pressure;BME280_temperature;BME280_humidity;BME280_pressure;Samples;Min_cycle;Max_cycle;Signal;HPM_P1;HPM_P2
2022/02/03 00:00:39;;;;;;;6.68;5.18;;;10.60;75.50;;;;;;5082589;28;20032;-69
2022/02/03 00:05:47;;;;;;;7.90;4.97;;;10.60;76.10;;;;;;5097113;28;20032;-71
2022/02/03 00:08:35;;;;;;;6.97;5.80;;;10.50;75.70;;;;;;5078317;28;20058;-71
2022/02/03 00:11:25;;;;;;;7.90;5.30;;;10.60;75.70;;;;;;5079939;28;20028;-71
2022/02/03 00:27:39;;;;;;;9.13;6.80;;;10.30;76.50;;;;;;5099070;28;20408;-70
2022/02/03 00:30:13;;;;;;;7.38;5.28;;;10.30;76.80;;;;;;5096767;28;20472;-71
2022/02/03 00:38:44;;;;;;;8.25;6.80;;;10.30;76.90;;;;;;5092392;28;20028;-71
2022/02/03 00:48:56;;;;;;;12.18;8.27;;;9.90;77.70;;;;;;5095431;28;20109;-71
2022/02/03 00:51:23;;;;;;;9.35;7.22;;;9.90;77.50;;;;;;5078045;28;20020;-71
2022/02/03 00:53:49;;;;;;;11.27;8.35;;;9.90;78.20;;;;;;5096344;28;20031;-71
2022/02/03 00:56:17;;;;;;;10.40;7.38;;;10.00;78.00;;;;;;5094431;28;20031;-71
2022/02/03 00:59:07;;;;;;;9.68;7.78;;;10.00;78.40;;;;;;5076149;28;20046;-71
2022/02/03 01:01:48;;;;;;;9.68;7.55;;;10.00;78.10;;;;;;5096566;28;20028;-70
2022/02/03 01:04:15;;;;;;;10.23;8.43;;;10.10;78.00;;;;;;5106328;28;20019;-71
2022/02/03 01:06:49;;;;;;;11.50;8.18;;;10.00;77.50;;;;;;5102484;28;20035;-73
2022/02/03 01:09:22;;;;;;;11.73;8.25;;;9.90;78.00;;;;;;5083832;28;20073;-71
2022/02/03 01:11:49;;;;;;;;;;;9.90;78.20;;;;;;5096465;28;20093;-71
2022/02/03 01:14:32;;;;;;;8.32;6.40;;;9.80;77.80;;;;;;5106674;28;19994;-71
2022/02/03 01:36:55;;;;;;;10.98;7.90;;;9.70;79.20;;;;;;5107138;28;20042;-71
2022/02/03 01:53:57;;;;;;;10.88;8.07;;;9.70;79.00;;;;;;5033990;28;20057;-72
2022/02/03 01:56:29;;;;;;;10.85;7.25;;;9.50;78.90;;;;;;5034173;28;20089;-71
2022/02/03 01:58:58;;;;;;;8.57;7.20;;;9.60;79.70;;;;;;5030542;28;20022;-71
2022/02/03 02:01:26;;;;;;;11.90;8.65;;;9.70;79.60;;;;;;5041183;28;20041;-71
2022/02/03 02:04:01;;;;;;;10.55;8.02;;;9.80;79.20;;;;;;5034157;28;20080;-71
2022/02/03 02:07:00;;;;;;;9.48;6.63;;;9.70;79.50;;;;;;5034069;28;20045;-71
2022/02/03 02:13:03;;;;;;;13.48;9.13;;;9.70;79.20;;;;;;5033855;28;20045;-71
2022/02/03 02:38:40;;;;;;;10.80;7.07;;;9.50;79.30;;;;;;5062393;28;20121;-71
2022/02/03 02:44:17;;;;;;;13.70;9.07;;;9.50;79.80;;;;;;5064877;28;20052;-71
2022/02/03 02:46:43;;;;;;;9.48;6.88;;;9.50;79.50;;;;;;5033204;28;20095;-71
2022/02/03 02:49:36;;;;;;;10.82;7.72;;;9.50;79.90;;;;;;5053741;28;20025;-71
2022/02/03 02:52:11;;;;;;;10.43;7.43;;;9.60;79.80;;;;;;5052632;28;20033;-71
2022/02/03 02:54:58;;;;;;;10.23;7.90;;;9.60;79.50;;;;;;5053200;28;20080;-71
2022/02/03 03:33:29;;;;;;;7.40;5.47;;;9.30;80.90;;;;;;5008296;28;20034;-71
2022/02/03 03:35:59;;;;;;;9.13;6.20;;;9.40;80.10;;;;;;5008461;28;20125;-71
2022/02/03 03:38:31;;;;;;;8.75;6.40;;;9.50;80.30;;;;;;5008435;28;20030;-71
2022/02/03 03:40:58;;;;;;;8.68;6.20;;;9.40;79.30;;;;;;5008244;28;20022;-71
2022/02/03 03:43:28;;;;;;;6.32;4.95;;;9.30;79.70;;;;;;5008844;28;20172;-71
2022/02/03 03:45:55;;;;;;;7.18;5.55;;;9.30;80.10;;;;;;5010885;28;20119;-71
2022/02/03 03:48:29;;;;;;;7.35;5.45;;;9.30;80.60;;;;;;5011742;28;20900;-71
2022/02/03 03:51:01;;;;;;;7.45;5.10;;;9.40;79.80;;;;;;5012084;28;20075;-71
2022/02/03 03:53:39;;;;;;;8.68;5.40;;;9.40;79.60;;;;;;5012019;28;20119;-71
2022/02/03 03:56:33;;;;;;;8.38;5.68;;;9.40;79.90;;;;;;5011704;28;20080;-71
2022/02/03 05:04:34;;;;;;;4.60;3.22;;;9.60;81.40;;;;;;5030707;28;20083;-70
2022/02/03 05:07:15;;;;;;;4.53;2.85;;;9.60;80.40;;;;;;5047215;28;20029;-70
2022/02/03 05:10:12;;;;;;;6.13;3.90;;;9.70;80.80;;;;;;5047652;28;20029;-70
2022/02/03 05:13:36;;;;;;;7.00;4.68;;;9.80;80.00;;;;;;5048626;28;20508;-70
2022/02/03 05:19:22;;;;;;;6.03;3.83;;;9.80;80.20;;;;;;5050354;28;20501;-70
2022/02/03 05:25:13;;;;;;;6.88;4.65;;;9.60;80.00;;;;;;5048626;28;20064;-70
2022/02/03 05:45:54;;;;;;;6.95;4.60;;;9.60;80.50;;;;;;5095410;28;20020;-70
2022/02/03 06:04:35;;;;;;;7.82;4.75;;;9.60;81.60;;;;;;5047245;28;20040;-70
2022/02/03 06:07:39;;;;;;;8.05;4.65;;;9.60;81.90;;;;;;5019034;28;20029;-71
2022/02/03 06:21:40;;;;;;;9.40;5.60;;;9.60;81.30;;;;;;5037865;28;20059;-71
2022/02/03 06:23:48;;;;;;;8.02;5.22;;;9.60;81.10;;;;;;5027525;28;20495;-71
2022/02/03 06:29:00;;;;;;;10.30;5.70;;;9.60;81.80;;;;;;5035507;28;20031;-71
2022/02/03 06:31:26;;;;;;;9.77;6.18;;;9.60;81.90;;;;;;5049282;28;20021;-70
2022/02/03 06:33:51;;;;;;;9.88;6.15;;;9.40;81.50;;;;;;5036790;28;20033;-71
2022/02/03 06:36:17;;;;;;;6.35;4.50;;;9.50;81.80;;;;;;5037453;28;20140;-70
2022/02/03 06:38:43;;;;;;;8.10;5.90;;;9.60;82.50;;;;;;5037909;28;20064;-70
2022/02/03 06:41:08;;;;;;;6.88;4.72;;;9.60;81.90;;;;;;5052988;28;20066;-70
2022/02/03 06:43:34;;;;;;;8.10;5.45;;;9.60;82.60;;;;;;5095380;28;20145;-70
2022/02/03 06:46:03;;;;;;;8.80;5.30;;;9.60;82.00;;;;;;5096496;28;20039;-70
2022/02/03 06:48:31;;;;;;;6.70;4.50;;;9.50;81.90;;;;;;5094370;28;20569;-73
2022/02/03 06:51:06;;;;;;;7.97;4.90;;;9.60;82.00;;;;;;5094243;28;20507;-71
2022/02/03 06:53:36;;;;;;;6.97;4.85;;;9.60;82.20;;;;;;5075856;28;20639;-72
2022/02/03 06:56:13;;;;;;;5.88;3.88;;;9.60;81.80;;;;;;5092117;28;20028;-70
2022/02/03 07:01:16;;;;;;;6.93;4.47;;;9.60;81.70;;;;;;5096477;28;20127;-72
2022/02/03 07:03:48;;;;;;;8.05;4.47;;;9.60;82.00;;;;;;5094233;28;20500;-72
2022/02/03 07:06:14;;;;;;;6.50;4.20;;;9.60;81.70;;;;;;5094111;28;20076;-70
2022/02/03 07:08:41;;;;;;;6.22;4.22;;;9.60;81.90;;;;;;5094490;28;20118;-70
2022/02/03 07:11:07;;;;;;;7.28;4.45;;;9.50;82.00;;;;;;5092875;28;20115;-70
2022/02/03 07:13:34;;;;;;;5.25;3.70;;;9.50;82.00;;;;;;5102360;28;20169;-70
2022/02/03 07:16:00;;;;;;;5.18;3.55;;;9.40;82.20;;;;;;5098667;28;20023;-70
2022/02/03 07:18:28;;;;;;;4.22;3.17;;;9.40;82.00;;;;;;5096124;28;20036;-70
2022/02/03 07:20:53;;;;;;;5.28;3.20;;;9.40;82.10;;;;;;5097486;28;20423;-70
2022/02/03 07:23:19;;;;;;;4.50;3.33;;;9.40;82.30;;;;;;5099695;28;20020;-70
2022/02/03 07:25:44;;;;;;;3.85;2.63;;;9.40;82.50;;;;;;5075801;28;20032;-69
2022/02/03 07:28:12;;;;;;;3.78;2.90;;;9.40;82.60;;;;;;5099617;28;20028;-69
2022/02/03 07:30:37;;;;;;;3.53;2.75;;;9.40;82.60;;;;;;5093909;28;20024;-69
2022/02/03 07:33:06;;;;;;;6.00;3.83;;;9.40;82.40;;;;;;5097414;28;20141;-69
2022/02/03 07:35:33;;;;;;;4.68;3.35;;;9.30;82.40;;;;;;5079587;28;20050;-70
2022/02/03 07:38:01;;;;;;;6.22;3.40;;;9.30;83.10;;;;;;5077134;28;20024;-71
2022/02/03 07:40:27;;;;;;;5.22;3.78;;;9.20;83.00;;;;;;5096532;28;20055;-71
2022/02/03 07:42:54;;;;;;;5.28;3.70;;;9.30;83.70;;;;;;5099466;28;20071;-71
2022/02/03 07:45:21;;;;;;;4.13;2.90;;;9.50;83.60;;;;;;5097692;28;20488;-71
2022/02/03 07:47:49;;;;;;;4.25;3.15;;;9.50;83.20;;;;;;5097459;28;20030;-70
2022/02/03 07:50:15;;;;;;;6.00;3.90;;;9.50;82.90;;;;;;5096461;28;20110;-71
2022/02/03 07:52:41;;;;;;;3.83;2.65;;;9.60;83.10;;;;;;5093589;28;20031;-71
2022/02/03 07:55:07;;;;;;;4.82;2.80;;;9.60;83.00;;;;;;5099360;28;20065;-71
2022/02/03 07:57:34;;;;;;;4.15;2.67;;;9.50;82.10;;;;;;5097346;28;20032;-71
2022/02/03 08:00:00;;;;;;;3.42;2.42;;;9.50;82.50;;;;;;5097524;28;20055;-71
2022/02/03 08:02:25;;;;;;;3.35;2.20;;;9.50;82.60;;;;;;5097036;28;20092;-71
2022/02/03 08:04:52;;;;;;;3.40;2.30;;;9.50;82.60;;;;;;5093250;28;20510;-71
2022/02/03 08:07:21;;;;;;;3.13;2.28;;;9.50;82.10;;;;;;5097989;28;20047;-70
2022/02/03 08:10:04;;;;;;;2.45;2.05;;;9.50;82.60;;;;;;5091806;28;20020;-71
2022/02/03 08:12:33;;;;;;;3.45;2.47;;;9.60;82.90;;;;;;5103373;28;20475;-71
2022/02/03 08:15:00;;;;;;;2.20;1.60;;;9.60;82.20;;;;;;5102960;28;20537;-71
2022/02/03 08:17:38;;;;;;;3.72;1.88;;;9.60;82.70;;;;;;5096512;28;20039;-71
2022/02/03 08:20:09;;;;;;;3.63;2.03;;;9.60;82.60;;;;;;5094764;28;20020;-70
2022/02/03 08:22:45;;;;;;;2.22;1.77;;;9.60;81.90;;;;;;5093911;28;20028;-71
2022/02/03 08:25:18;;;;;;;2.03;1.40;;;9.60;82.40;;;;;;5098988;28;20020;-71
2022/02/03 08:30:34;;;;;;;2.47;1.92;;;9.70;82.90;;;;;;5096447;28;20040;-71
2022/02/03 08:33:01;;;;;;;2.78;1.77;;;9.80;82.60;;;;;;5096078;28;20020;-72
2022/02/03 08:38:12;;;;;;;2.08;1.50;;;9.80;82.00;;;;;;5094185;28;20036;-71
2022/02/03 08:43:19;;;;;;;2.05;1.70;;;9.90;81.80;;;;;;5094323;28;20028;-71
2022/02/03 08:45:45;;;;;;;2.80;1.85;;;9.70;81.50;;;;;;5091805;28;20033;-71
2022/02/03 08:48:13;;;;;;;2.38;1.50;;;9.80;81.80;;;;;;5096324;28;20078;-71
2022/02/03 08:50:40;;;;;;;2.63;1.67;;;9.80;81.40;;;;;;5097175;28;20499;-70
2022/02/03 08:53:15;;;;;;;2.45;1.70;;;9.70;81.10;;;;;;5092435;28;20039;-71
2022/02/03 09:36:36;;;;;;;2.10;1.05;;;9.40;80.80;;;;;;5090267;28;20228;-72
2022/02/03 09:41:44;;;;;;;1.90;1.30;;;9.50;82.10;;;;;;5104898;28;20084;-71
2022/02/03 10:01:03;;;;;;;2.10;1.48;;;9.70;82.60;;;;;;5077174;28;20021;-78
2022/02/03 10:04:02;;;;;;;2.13;1.33;;;9.80;82.40;;;;;;5019444;28;20053;-71
2022/02/03 10:06:21;;;;;;;2.97;1.33;;;9.80;82.10;;;;;;5025319;28;20775;-70
2022/02/03 10:08:52;;;;;;;2.35;1.35;;;9.80;82.10;;;;;;5029152;28;20184;-70
2022/02/03 10:11:23;;;;;;;2.15;1.40;;;9.90;82.00;;;;;;5038800;28;20029;-70
2022/02/03 10:13:55;;;;;;;1.73;1.20;;;9.90;82.00;;;;;;5028218;28;20038;-68
2022/02/03 10:16:27;;;;;;;2.40;1.70;;;9.90;81.50;;;;;;5029288;28;20048;-75
2022/02/03 10:19:20;;;;;;;2.95;1.65;;;9.80;81.40;;;;;;5018385;28;20037;-80
2022/02/03 10:21:50;;;;;;;2.20;1.30;;;9.80;81.90;;;;;;5017258;28;20037;-80
2022/02/03 10:24:18;;;;;;;2.88;1.80;;;9.90;82.30;;;;;;5017559;28;20037;-80
2022/02/03 10:26:48;;;;;;;1.90;1.25;;;10.00;82.60;;;;;;5017130;28;20629;-80
2022/02/03 10:29:20;;;;;;;2.67;1.80;;;10.10;82.20;;;;;;5017122;28;20159;-81
2022/02/03 10:31:46;;;;;;;2.30;1.30;;;10.00;81.80;;;;;;5041511;28;20038;-84
2022/02/03 10:34:18;;;;;;;1.45;1.08;;;10.10;81.40;;;;;;5033068;28;20028;-87
2022/02/03 10:37:00;;;;;;;1.33;0.95;;;10.00;82.00;;;;;;5034232;28;20120;-78
2022/02/03 10:45:37;;;;;;;2.60;1.67;;;10.20;81.80;;;;;;5080674;28;20037;-71
2022/02/03 10:48:27;;;;;;;1.77;1.00;;;10.20;81.90;;;;;;5082542;28;20016;-72
2022/02/03 10:54:35;;;;;;;1.90;1.27;;;10.30;81.30;;;;;;5077714;28;20043;-68
2022/02/03 11:12:52;;;;;;;1.90;1.33;;;10.30;81.70;;;;;;5104696;28;20145;-70
2022/02/03 11:15:20;;;;;;;4.05;1.52;;;10.40;81.50;;;;;;5086829;28;20029;-69
2022/02/03 11:17:48;;;;;;;1.50;1.15;;;10.40;81.70;;;;;;5080424;28;20111;-70
2022/02/03 11:20:17;;;;;;;3.13;1.58;;;10.40;81.30;;;;;;5098547;28;20396;-69
2022/02/03 11:45:08;;;;;;;4.18;1.70;;;10.80;81.50;;;;;;5102342;28;20128;-65
2022/02/03 11:48:00;;;;;;;2.22;1.60;;;10.90;81.70;;;;;;5079711;28;20032;-65
2022/02/03 11:50:53;;;;;;;2.33;1.67;;;11.00;81.40;;;;;;5080486;28;20020;-65
2022/02/03 12:01:47;;;;;;;2.65;1.67;;;11.00;81.00;;;;;;5078805;28;20028;-65
2022/02/03 12:04:46;;;;;;;2.58;1.95;;;11.00;81.00;;;;;;5097122;28;20035;-65
2022/02/03 12:20:20;;;;;;;2.15;1.30;;;10.90;81.00;;;;;;5090379;28;20028;-63
2022/02/03 12:23:00;;;;;;;1.90;1.48;;;11.00;81.40;;;;;;5082128;28;20035;-63
2022/02/03 12:25:40;;;;;;;1.60;1.17;;;11.10;80.80;;;;;;5089940;28;20081;-63
2022/02/03 12:29:14;;;;;;;1.67;0.95;;;11.10;80.40;;;;;;5090469;28;20026;-63
2022/02/03 12:39:15;;;;;;;2.33;1.77;;;11.10;81.00;;;;;;5088679;28;20052;-64
2022/02/03 12:42:00;;;;;;;1.80;1.27;;;11.20;81.00;;;;;;5088720;28;20105;-64
2022/02/03 12:44:28;;;;;;;1.63;1.23;;;11.20;80.90;;;;;;5082965;28;20071;-64
2022/02/03 12:47:02;;;;;;;2.80;1.85;;;11.30;80.30;;;;;;5060192;28;20028;-64
2022/02/03 12:49:30;;;;;;;2.25;1.30;;;11.20;80.60;;;;;;5090617;28;20023;-64
2022/02/03 12:51:56;;;;;;;1.55;1.23;;;11.20;80.20;;;;;;5084380;28;20487;-64
2022/02/03 12:54:22;;;;;;;4.07;1.60;;;11.20;80.50;;;;;;5071370;28;20024;-64
2022/02/03 12:56:47;;;;;;;1.67;1.23;;;11.20;80.50;;;;;;5088216;28;20039;-64
2022/02/03 12:59:16;;;;;;;11.18;6.03;;;11.20;80.80;;;;;;5102359;28;20024;-64
2022/02/03 13:01:44;;;;;;;3.70;2.20;;;11.10;80.40;;;;;;5092631;28;20027;-64
2022/02/03 13:04:19;;;;;;;3.05;2.00;;;11.20;80.90;;;;;;5086952;28;20043;-64
2022/02/03 13:07:02;;;;;;;2.15;1.45;;;11.20;80.90;;;;;;5092129;28;20024;-64
2022/02/03 13:09:40;;;;;;;3.08;1.50;;;11.20;80.90;;;;;;5085835;28;20020;-64
2022/02/03 13:12:16;;;;;;;2.22;1.40;;;11.20;80.80;;;;;;5086826;28;20439;-65
2022/02/03 13:14:50;;;;;;;2.60;1.33;;;11.20;80.80;;;;;;5071658;28;20040;-64
2022/02/03 13:17:20;;;;;;;2.10;1.33;;;11.20;80.50;;;;;;5094803;28;20036;-65
2022/02/03 13:20:00;;;;;;;2.60;1.40;;;11.20;80.60;;;;;;5086507;28;20024;-64
2022/02/03 13:22:37;;;;;;;2.47;1.60;;;11.20;81.20;;;;;;5094016;28;20027;-64
2022/02/03 13:30:07;;;;;;;2.92;1.65;;;11.50;81.30;;;;;;5089905;28;20062;-65
2022/02/03 13:32:39;;;;;;;2.10;1.60;;;11.40;80.70;;;;;;5087223;28;20023;-65
2022/02/03 13:37:53;;;;;;;1.63;1.20;;;11.40;80.40;;;;;;5088488;28;20044;-65
2022/02/03 13:40:20;;;;;;;1.88;1.02;;;11.40;81.00;;;;;;5090577;28;20028;-64
2022/02/03 13:42:48;;;;;;;2.03;0.98;;;11.50;80.80;;;;;;5089860;28;20503;-65
2022/02/03 13:45:15;;;;;;;1.38;1.00;;;11.40;80.70;;;;;;5089489;28;20500;-65
2022/02/03 13:47:42;;;;;;;1.60;1.10;;;11.50;81.30;;;;;;5099056;28;20020;-65
2022/02/03 13:50:10;;;;;;;1.58;1.10;;;11.60;82.20;;;;;;5090102;28;20396;-64
2022/02/03 13:52:40;;;;;;;2.20;1.10;;;11.70;81.10;;;;;;5091081;28;20028;-64
2022/02/03 14:28:39;;;;;;;1.77;0.90;;;12.40;80.10;;;;;;5010435;28;20092;-64
2022/02/03 14:31:07;;;;;;;1.30;1.00;;;12.50;79.50;;;;;;4997991;28;20388;-65
2022/02/03 14:33:36;;;;;;;1.10;0.80;;;12.50;80.20;;;;;;5009097;28;20045;-67
2022/02/03 14:36:06;;;;;;;3.28;1.30;;;12.70;80.60;;;;;;5010006;28;20058;-65
2022/02/03 14:39:19;;;;;;;1.00;0.75;;;12.80;80.30;;;;;;5006554;28;20493;-65
2022/02/03 14:41:31;;;;;;;0.95;0.65;;;12.90;79.90;;;;;;5008670;28;20034;-65
2022/02/03 14:43:59;;;;;;;0.95;0.80;;;13.10;79.70;;;;;;5024197;28;20036;-65
2022/02/03 14:46:25;;;;;;;1.42;1.02;;;13.10;79.20;;;;;;5011782;28;20030;-66
2022/02/03 14:48:51;;;;;;;1.20;1.08;;;13.10;77.70;;;;;;5014376;28;20113;-65
2022/02/03 14:51:22;;;;;;;1.17;0.85;;;12.80;77.30;;;;;;5016448;28;20684;-65
2022/02/03 14:59:13;;;;;;;2.55;0.90;;;12.50;78.80;;;;;;5088479;28;20461;-65
2022/02/03 15:01:39;;;;;;;1.50;1.10;;;12.40;79.00;;;;;;5089522;28;20120;-65
2022/02/03 15:04:10;;;;;;;1.20;0.80;;;12.50;79.40;;;;;;5092371;28;20023;-65
2022/02/03 15:06:40;;;;;;;1.17;0.90;;;12.40;79.00;;;;;;5087723;28;20385;-65
2022/02/03 15:14:08;;;;;;;1.85;1.02;;;12.40;79.30;;;;;;5088391;28;20504;-65
2022/02/03 15:16:34;;;;;;;1.42;0.70;;;12.40;79.60;;;;;;5107594;28;20026;-65
2022/02/03 15:19:00;;;;;;;1.38;0.88;;;12.40;79.00;;;;;;5097861;28;20035;-65
2022/02/03 15:21:25;;;;;;;1.73;0.90;;;12.40;79.40;;;;;;5090018;28;20024;-65
2022/02/03 15:23:51;;;;;;;1.35;0.90;;;12.30;79.30;;;;;;5085721;28;20040;-65
2022/02/03 15:26:16;;;;;;;2.10;0.85;;;12.30;79.30;;;;;;5098273;28;20040;-64
2022/02/03 15:28:42;;;;;;;1.60;0.93;;;12.30;79.70;;;;;;5077658;28;23228;-64
2022/02/03 15:31:08;;;;;;;1.27;0.90;;;12.30;79.30;;;;;;5096112;28;20031;-64
2022/02/03 15:33:35;;;;;;;1.27;0.80;;;12.30;79.50;;;;;;5091105;28;20032;-64
2022/02/03 15:36:05;;;;;;;1.70;0.85;;;12.30;79.20;;;;;;5084878;28;20036;-65
2022/02/03 15:38:37;;;;;;;2.00;0.93;;;12.20;79.40;;;;;;5094423;28;20023;-65
2022/02/03 15:41:06;;;;;;;1.35;0.82;;;12.10;79.20;;;;;;5060954;28;20032;-65
2022/02/03 15:43:39;;;;;;;2.50;1.50;;;12.10;79.60;;;;;;5088693;28;20086;-65
2022/02/03 15:46:05;;;;;;;2.25;1.25;;;12.10;79.40;;;;;;5096260;28;20016;-66
2022/02/03 15:48:41;;;;;;;1.65;1.00;;;12.00;79.90;;;;;;5096630;28;20032;-66
2022/02/03 15:51:21;;;;;;;1.08;0.77;;;12.10;80.00;;;;;;5095033;28;20098;-65
2022/02/03 16:17:45;;;;;;;1.40;1.00;;;12.10;80.40;;;;;;5082576;28;20036;-68
2022/02/03 16:20:18;;;;;;;;;;;12.00;80.00;;;;;;5098689;28;20020;-67
2022/02/03 16:54:44;;;;;;;0.80;0.57;;;12.10;80.30;;;;;;5014005;28;20034;-66
2022/02/03 16:57:14;;;;;;;1.48;0.85;;;12.10;80.30;;;;;;5014372;28;20682;-66
2022/02/03 16:59:50;;;;;;;1.42;0.80;;;12.10;80.50;;;;;;5014205;28;20109;-66
2022/02/03 17:02:16;;;;;;;2.65;0.80;;;12.10;80.20;;;;;;5013349;28;20038;-66
2022/02/03 17:04:41;;;;;;;1.13;0.80;;;12.00;80.30;;;;;;5026371;28;20037;-63
2022/02/03 17:07:07;;;;;;;2.33;0.80;;;11.90;80.50;;;;;;5014944;28;20037;-66
2022/02/03 17:09:33;;;;;;;1.77;0.80;;;11.80;80.70;;;;;;5018093;28;20072;-66
2022/02/03 17:11:59;;;;;;;1.77;0.88;;;11.80;81.20;;;;;;5020611;28;20029;-67
2022/02/03 17:14:28;;;;;;;2.22;1.70;;;11.80;81.50;;;;;;5016309;28;20034;-66
2022/02/03 17:16:53;;;;;;;1.65;1.10;;;11.80;81.70;;;;;;5024884;28;20038;-66
2022/02/03 17:19:21;;;;;;;2.58;2.38;;;11.70;81.40;;;;;;5017033;28;20136;-66
2022/02/03 17:21:46;;;;;;;1.95;1.50;;;11.80;81.70;;;;;;5025209;28;20436;-66
2022/02/03 17:24:12;;;;;;;1.33;1.10;;;11.80;81.90;;;;;;5016680;28;20040;-66
2022/02/03 17:29:29;;;;;;;1.58;1.30;;;11.70;81.40;;;;;;5060619;28;20039;-66
2022/02/03 17:32:24;;;;;;;2.30;1.27;;;11.60;81.60;;;;;;5086659;28;20032;-66
2022/02/03 18:10:25;;;;;;;1.73;1.25;;;11.30;83.30;;;;;;5041590;28;20045;-65
2022/02/03 18:19:17;;;;;;;1.60;1.25;;;11.30;85.00;;;;;;5041124;28;20051;-65
2022/02/03 18:32:32;;;;;;;1.67;1.25;;;11.30;84.80;;;;;;5038314;28;20037;-67
2022/02/03 18:53:31;;;;;;;2.85;1.60;;;11.30;85.70;;;;;;5086603;28;20028;-66
2022/02/03 18:56:01;;;;;;;2.10;1.55;;;11.20;85.60;;;;;;5083404;28;20028;-67
2022/02/03 19:12:47;;;;;;;3.58;2.08;;;11.30;86.00;;;;;;5093155;28;20034;-67
2022/02/03 20:01:28;;;;;;;2.33;1.40;;;11.50;86.50;;;;;;5038822;28;20080;-66
2022/02/03 20:03:49;;;;;;;3.30;1.90;;;11.50;86.10;;;;;;5027006;28;20041;-66
2022/02/03 20:08:56;;;;;;;2.33;1.80;;;11.50;86.30;;;;;;5054587;28;20045;-66
2022/02/03 20:11:24;;;;;;;2.78;1.98;;;11.50;86.10;;;;;;5053491;28;20040;-66
2022/02/03 20:13:50;;;;;;;2.70;2.08;;;11.50;86.30;;;;;;5046742;28;20057;-66
2022/02/03 20:16:19;;;;;;;2.75;1.95;;;11.50;86.20;;;;;;5049076;28;20064;-66
2022/02/03 20:18:44;;;;;;;2.75;1.63;;;11.50;86.20;;;;;;5052143;28;20025;-67
2022/02/03 20:21:10;;;;;;;3.92;2.10;;;11.50;86.40;;;;;;5049247;28;20049;-66
2022/02/03 20:23:41;;;;;;;2.08;1.75;;;11.50;86.30;;;;;;5062841;28;20028;-67
2022/02/03 20:26:08;;;;;;;3.08;2.13;;;11.50;86.40;;;;;;5054409;28;20080;-66
2022/02/03 20:28:34;;;;;;;4.18;2.88;;;11.50;86.30;;;;;;5059622;28;20106;-66
2022/02/03 20:31:00;;;;;;;2.50;2.08;;;11.50;86.00;;;;;;5057332;28;20436;-67
2022/02/03 20:33:26;;;;;;;3.38;2.53;;;11.50;86.50;;;;;;5064393;28;20036;-66
2022/02/03 20:35:51;;;;;;;3.85;2.72;;;11.50;86.30;;;;;;5103003;28;20024;-66
2022/02/03 20:38:18;;;;;;;4.38;2.70;;;11.50;86.40;;;;;;5095789;28;20110;-66
2022/02/03 20:40:45;;;;;;;3.03;2.15;;;11.50;86.50;;;;;;5104505;28;20050;-66
2022/02/03 20:43:10;;;;;;;2.97;2.35;;;11.50;86.60;;;;;;5096230;28;20035;-66
2022/02/03 20:45:36;;;;;;;3.75;2.50;;;11.50;86.80;;;;;;5103542;28;20110;-66
2022/02/03 20:48:03;;;;;;;2.92;2.38;;;11.50;86.80;;;;;;5101714;28;20024;-66
2022/02/03 20:50:28;;;;;;;2.78;2.33;;;11.50;86.70;;;;;;5097609;28;20110;-67
2022/02/03 20:52:54;;;;;;;2.40;2.03;;;11.50;86.50;;;;;;5104643;28;20106;-66
2022/02/03 20:55:20;;;;;;;3.42;2.40;;;11.50;86.70;;;;;;5098093;28;20063;-66
2022/02/03 20:57:45;;;;;;;3.90;2.80;;;11.50;86.50;;;;;;5084599;28;20047;-66
2022/02/03 21:00:22;;;;;;;4.25;2.55;;;11.50;86.50;;;;;;5100129;28;20395;-66
2022/02/03 21:05:15;;;;;;;3.92;2.95;;;11.50;86.60;;;;;;5080604;28;20064;-66
2022/02/03 21:07:47;;;;;;;4.20;2.80;;;11.50;86.50;;;;;;5091371;28;20035;-66
2022/02/03 21:10:17;;;;;;;3.13;2.42;;;11.50;86.90;;;;;;5097519;28;20020;-66
2022/02/03 21:12:45;;;;;;;3.67;2.47;;;11.50;86.50;;;;;;5096097;28;20568;-66
2022/02/03 21:15:13;;;;;;;3.58;2.40;;;11.50;86.80;;;;;;5095653;28;20401;-66
2022/02/03 21:17:39;;;;;;;2.58;2.25;;;11.50;86.90;;;;;;5095650;28;20173;-66
2022/02/03 21:20:13;;;;;;;3.70;2.63;;;11.50;86.80;;;;;;5093110;28;20027;-66
2022/02/03 21:22:39;;;;;;;3.85;3.10;;;11.50;86.60;;;;;;5107346;28;20039;-66
2022/02/03 21:25:16;;;;;;;4.65;3.17;;;11.50;86.60;;;;;;5097516;28;20044;-66
2022/02/03 21:27:42;;;;;;;3.80;2.75;;;11.50;86.80;;;;;;5095606;28;20024;-66
2022/02/03 21:30:09;;;;;;;4.68;3.58;;;11.40;86.80;;;;;;5095401;28;20373;-66
2022/02/03 21:32:34;;;;;;;3.67;2.80;;;11.40;86.80;;;;;;5095243;28;20026;-66
2022/02/03 21:35:00;;;;;;;3.55;3.08;;;11.40;86.90;;;;;;5091839;28;20039;-66
2022/02/03 21:37:26;;;;;;;3.83;2.75;;;11.40;86.60;;;;;;5094530;28;20028;-66
2022/02/03 21:39:54;;;;;;;3.63;2.40;;;11.40;87.00;;;;;;5095953;28;20508;-66
2022/02/03 21:42:21;;;;;;;2.85;2.55;;;11.40;87.20;;;;;;5095089;28;20095;-66
2022/02/03 21:44:47;;;;;;;4.20;2.83;;;11.40;87.30;;;;;;5094880;28;20396;-66
2022/02/03 21:47:12;;;;;;;3.40;2.53;;;11.40;87.30;;;;;;5093957;28;20126;-66
2022/02/03 21:49:38;;;;;;;4.75;2.97;;;11.40;87.60;;;;;;5091194;28;20032;-66
2022/02/03 21:52:04;;;;;;;3.90;3.15;;;11.40;87.40;;;;;;5097690;28;20496;-67
2022/02/03 21:54:34;;;;;;;4.18;2.67;;;11.40;87.10;;;;;;5094941;28;20028;-66
2022/02/03 21:57:01;;;;;;;5.20;3.33;;;11.40;87.50;;;;;;5094757;28;20032;-66
2022/02/03 21:59:26;;;;;;;4.55;3.22;;;11.50;87.50;;;;;;5094723;28;20015;-66
2022/02/03 22:01:52;;;;;;;3.47;2.85;;;11.50;87.50;;;;;;5091071;28;20039;-67
2022/02/03 22:04:17;;;;;;;6.45;4.20;;;11.50;87.00;;;;;;5095742;28;20408;-66
2022/02/03 22:06:43;;;;;;;5.13;3.45;;;11.50;87.00;;;;;;5103310;28;20028;-71
2022/02/03 22:09:09;;;;;;;4.15;3.20;;;11.50;87.10;;;;;;5091762;28;20036;-71
2022/02/03 22:11:34;;;;;;;4.80;3.20;;;11.50;86.60;;;;;;5093035;28;20127;-67
2022/02/03 22:14:00;;;;;;;3.97;2.83;;;11.50;86.80;;;;;;5082585;28;20127;-67
2022/02/03 22:16:27;;;;;;;4.15;2.70;;;11.40;86.90;;;;;;5089091;28;20052;-67
2022/02/03 22:18:54;;;;;;;3.15;2.45;;;11.40;87.80;;;;;;5094882;28;20393;-67
2022/02/03 22:21:31;;;;;;;2.97;2.22;;;11.40;87.30;;;;;;5092654;28;20557;-67
2022/02/03 22:43:05;;;;;;;3.38;2.67;;;11.50;87.00;;;;;;5045681;28;20024;-67
2022/02/03 22:48:25;;;;;;;3.65;2.70;;;11.50;87.30;;;;;;5043686;28;20397;-67
2022/02/03 22:51:03;;;;;;;5.78;3.33;;;11.50;86.70;;;;;;5042582;28;20441;-67
2022/02/03 22:53:35;;;;;;;3.50;3.15;;;11.50;87.00;;;;;;5044989;28;20087;-67
2022/02/03 22:56:10;;;;;;;3.63;2.55;;;11.50;87.30;;;;;;5044508;28;20018;-67
2022/02/03 23:01:07;;;;;;;3.92;2.90;;;11.50;87.20;;;;;;5046961;28;20037;-67
2022/02/03 23:03:34;;;;;;;2.80;2.40;;;11.50;86.90;;;;;;5034873;28;20495;-67
2022/02/03 23:06:01;;;;;;;3.20;2.85;;;11.50;87.30;;;;;;5036026;28;20066;-67
2022/02/03 23:11:29;;;;;;;3.35;2.70;;;11.40;86.60;;;;;;5042235;28;20053;-67
2022/02/03 23:19:18;;;;;;;3.30;2.70;;;11.30;87.00;;;;;;5094634;28;20036;-66
2022/02/03 23:21:53;;;;;;;3.60;2.85;;;11.30;87.40;;;;;;5090238;28;20031;-67
2022/02/03 23:24:20;;;;;;;3.30;2.72;;;11.30;87.00;;;;;;5100617;28;20030;-66
2022/02/03 23:26:53;;;;;;;3.05;2.53;;;11.30;87.00;;;;;;5095794;28;20035;-67
2022/02/03 23:29:21;;;;;;;2.88;2.42;;;11.30;86.70;;;;;;5089760;28;20036;-66
2022/02/03 23:34:31;;;;;;;3.70;2.42;;;11.30;86.90;;;;;;5090953;28;20047;-66
2022/02/03 23:36:56;;;;;;;3.50;2.42;;;11.30;86.60;;;;;;5090928;28;20040;-67
2022/02/03 23:39:35;;;;;;;3.22;2.63;;;11.30;86.20;;;;;;5093807;28;20020;-66
